createdAt,value
2022-11-26T00:05:00.244Z,1.91
2022-11-26T00:20:02.106Z,1.94
2022-11-26T00:35:04.206Z,1.88
2022-11-26T00:50:07.181Z,1.90
2022-11-26T01:05:09.362Z,1.92
2022-11-26T01:20:22.791Z,1.91
2022-11-26T01:35:28.625Z,1.90
2022-11-26T01:50:36.323Z,1.85
2022-11-26T02:05:49.273Z,1.90
2022-11-26T02:21:06.029Z,1.85
2022-11-26T02:36:15.424Z,1.81
2022-11-26T02:51:27.488Z,1.74
2022-11-26T03:06:33.845Z,1.68
2022-11-26T03:21:35.846Z,1.71
2022-11-26T03:36:37.765Z,1.74
2022-11-26T03:51:39.764Z,1.71
2022-11-26T04:06:41.683Z,1.59
2022-11-26T04:21:43.688Z,1.53
2022-11-26T04:36:45.703Z,1.50
2022-11-26T04:51:47.605Z,1.40
2022-11-26T05:06:49.583Z,1.40
2022-11-26T05:21:51.525Z,1.33
2022-11-26T05:36:53.504Z,1.26
2022-11-26T05:51:55.465Z,1.35
2022-11-26T06:06:57.506Z,1.32
2022-11-26T06:21:59.453Z,1.42
2022-11-26T06:37:01.403Z,1.42
2022-11-26T06:52:03.424Z,1.33
2022-11-26T07:07:05.363Z,1.25
2022-11-26T07:22:07.325Z,1.25
2022-11-26T07:37:09.343Z,1.29
2022-11-26T07:52:11.304Z,1.23
2022-11-26T08:07:18.131Z,1.11
2022-11-26T08:22:25.314Z,1.19
2022-11-26T08:37:27.458Z,1.25
2022-11-26T08:52:29.336Z,1.38
2022-11-26T09:07:31.313Z,1.39
2022-11-26T09:22:35.546Z,1.47
2022-11-26T09:37:37.499Z,1.52
2022-11-26T09:52:50.905Z,1.57
2022-11-26T10:08:27.095Z,1.67
2022-11-26T10:23:36.567Z,1.70
2022-11-26T10:38:38.477Z,1.68
2022-11-26T10:54:07.739Z,1.67
2022-11-26T11:09:27.912Z,1.78
2022-11-26T11:24:29.988Z,1.78
2022-11-26T11:39:34.090Z,1.71
2022-11-26T11:54:57.106Z,1.71
2022-11-26T12:10:15.395Z,1.67
2022-11-26T12:25:37.240Z,1.66
2022-11-26T12:40:46.266Z,1.68
2022-11-26T12:55:56.928Z,1.56
2022-11-26T13:11:25.046Z,1.46
2022-11-26T13:27:01.627Z,1.56
2022-11-26T13:42:21.065Z,1.47
2022-11-26T13:57:31.648Z,1.44
2022-11-26T14:13:04.949Z,1.35
2022-11-26T14:28:10.046Z,1.38
2022-11-26T14:43:19.946Z,1.26
2022-11-26T14:58:32.588Z,1.21
2022-11-26T15:13:39.990Z,1.12
2022-11-26T15:28:41.946Z,1.19
2022-11-26T15:43:46.569Z,1.22
2022-11-26T15:58:52.898Z,1.50
2022-11-26T16:13:55.106Z,1.31
2022-11-26T16:28:57.127Z,1.23
2022-11-26T16:43:59.031Z,1.47
2022-11-26T16:59:02.817Z,1.32
2022-11-26T17:14:04.731Z,1.23
2022-11-26T17:29:06.651Z,1.23
2022-11-26T17:44:08.654Z,1.26
2022-11-26T17:59:11.841Z,1.25
2022-11-26T18:14:17.572Z,1.22
2022-11-26T18:29:19.531Z,1.23
2022-11-26T18:44:21.559Z,1.18
2022-11-26T18:59:23.535Z,1.13
2022-11-26T19:14:25.772Z,1.06
2022-11-26T19:29:27.691Z,1.04
2022-11-26T19:44:29.652Z,1.08
2022-11-26T19:59:31.673Z,1.12
2022-11-26T20:14:33.950Z,1.12
2022-11-26T20:29:35.927Z,1.13
2022-11-26T20:44:38.031Z,1.22
2022-11-26T20:59:40.354Z,1.18
2022-11-26T21:14:42.549Z,1.19
2022-11-26T21:29:46.470Z,1.26
2022-11-26T21:44:48.452Z,1.32
2022-11-26T21:59:50.410Z,1.33
2022-11-26T22:14:52.412Z,1.39
2022-11-26T22:29:54.330Z,1.33
2022-11-26T22:44:56.834Z,1.39
2022-11-26T22:59:58.872Z,1.35
2022-11-26T23:15:00.912Z,1.40
2022-11-26T23:30:02.931Z,1.44
2022-11-26T23:45:05.276Z,1.44
